sensor_id;sensor_type;location;lat;lon;timestamp;temperature;humidity
53264;DHT22;39153;52.680;6.172;2022-10-18T00:02:03;13.20;99.90
53264;DHT22;39153;52.680;6.172;2022-10-18T00:04:29;13.30;99.90
53264;DHT22;39153;52.680;6.172;2022-10-18T00:06:54;13.20;99.90
53264;DHT22;39153;52.680;6.172;2022-10-18T00:09:20;13.40;99.90
53264;DHT22;39153;52.680;6.172;2022-10-18T00:11:48;12.80;99.90
53264;DHT22;39153;52.680;6.172;2022-10-18T00:14:17;13.30;99.90
53264;DHT22;39153;52.680;6.172;2022-10-18T00:16:45;13.20;99.90
53264;DHT22;39153;52.680;6.172;2022-10-18T00:19:11;13.30;99.90
53264;DHT22;39153;52.680;6.172;2022-10-18T00:21:36;13.40;99.90
53264;DHT22;39153;52.680;6.172;2022-10-18T00:24:05;13.00;99.90
53264;DHT22;39153;52.680;6.172;2022-10-18T00:26:34;13.20;99.90
53264;DHT22;39153;52.680;6.172;2022-10-18T00:29:02;12.80;99.90
53264;DHT22;39153;52.680;6.172;2022-10-18T00:31:36;13.50;99.90
53264;DHT22;39153;52.680;6.172;2022-10-18T00:34:05;13.40;99.90
53264;DHT22;39153;52.680;6.172;2022-10-18T00:36:33;13.30;99.90
53264;DHT22;39153;52.680;6.172;2022-10-18T00:39:06;13.30;99.90
53264;DHT22;39153;52.680;6.172;2022-10-18T00:41:36;12.80;99.90
53264;DHT22;39153;52.680;6.172;2022-10-18T00:46:52;13.40;99.90
53264;DHT22;39153;52.680;6.172;2022-10-18T00:49:54;12.80;99.90
53264;DHT22;39153;52.680;6.172;2022-10-18T00:52:38;13.40;99.90
53264;DHT22;39153;52.680;6.172;2022-10-18T00:55:05;13.30;99.90
53264;DHT22;39153;52.680;6.172;2022-10-18T00:57:31;12.90;99.90
53264;DHT22;39153;52.680;6.172;2022-10-18T00:59:57;13.20;99.90
53264;DHT22;39153;52.680;6.172;2022-10-18T01:02:23;13.00;99.90
53264;DHT22;39153;52.680;6.172;2022-10-18T01:04:50;12.90;99.90
53264;DHT22;39153;52.680;6.172;2022-10-18T01:23:34;13.00;99.90
53264;DHT22;39153;52.680;6.172;2022-10-18T01:26:26;12.70;99.90
53264;DHT22;39153;52.680;6.172;2022-10-18T01:29:16;13.00;99.90
53264;DHT22;39153;52.680;6.172;2022-10-18T01:32:26;12.50;99.90
53264;DHT22;39153;52.680;6.172;2022-10-18T01:34:57;12.60;99.90
53264;DHT22;39153;52.680;6.172;2022-10-18T01:37:24;12.40;99.90
53264;DHT22;39153;52.680;6.172;2022-10-18T01:39:53;12.80;99.90
53264;DHT22;39153;52.680;6.172;2022-10-18T01:42:20;12.40;99.90
53264;DHT22;39153;52.680;6.172;2022-10-18T01:44:47;12.70;99.90
53264;DHT22;39153;52.680;6.172;2022-10-18T01:47:15;12.60;99.90
53264;DHT22;39153;52.680;6.172;2022-10-18T01:49:41;12.80;99.90
53264;DHT22;39153;52.680;6.172;2022-10-18T01:52:11;12.80;99.90
53264;DHT22;39153;52.680;6.172;2022-10-18T01:54:40;12.70;99.90
53264;DHT22;39153;52.680;6.172;2022-10-18T01:57:34;12.80;99.90
53264;DHT22;39153;52.680;6.172;2022-10-18T02:02:47;12.50;99.90
53264;DHT22;39153;52.680;6.172;2022-10-18T02:05:31;12.70;99.90
53264;DHT22;39153;52.680;6.172;2022-10-18T02:10:58;12.50;99.90
53264;DHT22;39153;52.680;6.172;2022-10-18T02:13:30;12.20;99.90
53264;DHT22;39153;52.680;6.172;2022-10-18T02:16:03;12.00;99.90
53264;DHT22;39153;52.680;6.172;2022-10-18T02:18:37;12.00;99.90
53264;DHT22;39153;52.680;6.172;2022-10-18T02:21:07;12.20;99.90
53264;DHT22;39153;52.680;6.172;2022-10-18T02:23:35;12.00;99.90
53264;DHT22;39153;52.680;6.172;2022-10-18T02:26:02;11.90;99.90
53264;DHT22;39153;52.680;6.172;2022-10-18T02:28:28;11.90;99.90
53264;DHT22;39153;52.680;6.172;2022-10-18T02:33:38;11.90;99.90
53264;DHT22;39153;52.680;6.172;2022-10-18T02:36:17;12.20;99.90
53264;DHT22;39153;52.680;6.172;2022-10-18T02:38:44;12.30;99.90
53264;DHT22;39153;52.680;6.172;2022-10-18T02:41:10;11.90;99.90
53264;DHT22;39153;52.680;6.172;2022-10-18T02:43:36;12.40;99.90
53264;DHT22;39153;52.680;6.172;2022-10-18T02:46:02;12.30;99.90
53264;DHT22;39153;52.680;6.172;2022-10-18T02:48:28;11.80;99.90
53264;DHT22;39153;52.680;6.172;2022-10-18T02:50:54;12.10;99.90
53264;DHT22;39153;52.680;6.172;2022-10-18T02:53:20;12.30;99.90
53264;DHT22;39153;52.680;6.172;2022-10-18T02:55:45;11.90;99.90
53264;DHT22;39153;52.680;6.172;2022-10-18T02:58:11;12.30;99.90
53264;DHT22;39153;52.680;6.172;2022-10-18T03:00:37;12.20;99.90
53264;DHT22;39153;52.680;6.172;2022-10-18T03:03:02;12.10;99.90
53264;DHT22;39153;52.680;6.172;2022-10-18T03:05:28;12.30;99.90
53264;DHT22;39153;52.680;6.172;2022-10-18T03:07:56;12.00;99.90
53264;DHT22;39153;52.680;6.172;2022-10-18T03:10:22;11.90;99.90
53264;DHT22;39153;52.680;6.172;2022-10-18T03:12:47;12.40;99.90
53264;DHT22;39153;52.680;6.172;2022-10-18T03:15:13;12.00;99.90
53264;DHT22;39153;52.680;6.172;2022-10-18T03:17:39;11.70;99.90
53264;DHT22;39153;52.680;6.172;2022-10-18T03:20:05;11.70;99.90
53264;DHT22;39153;52.680;6.172;2022-10-18T03:22:30;12.20;99.90
53264;DHT22;39153;52.680;6.172;2022-10-18T03:24:56;11.80;99.90
53264;DHT22;39153;52.680;6.172;2022-10-18T03:27:22;12.20;99.90
53264;DHT22;39153;52.680;6.172;2022-10-18T03:29:47;12.10;99.90
53264;DHT22;39153;52.680;6.172;2022-10-18T03:32:13;12.00;99.90
53264;DHT22;39153;52.680;6.172;2022-10-18T03:34:39;11.60;99.90
53264;DHT22;39153;52.680;6.172;2022-10-18T03:37:04;12.00;99.90
53264;DHT22;39153;52.680;6.172;2022-10-18T03:39:30;12.00;99.90
53264;DHT22;39153;52.680;6.172;2022-10-18T03:41:56;11.90;99.90
53264;DHT22;39153;52.680;6.172;2022-10-18T03:44:21;12.10;99.90
53264;DHT22;39153;52.680;6.172;2022-10-18T03:46:47;11.60;99.90
53264;DHT22;39153;52.680;6.172;2022-10-18T03:49:13;12.10;99.90
53264;DHT22;39153;52.680;6.172;2022-10-18T03:51:38;11.60;99.90
53264;DHT22;39153;52.680;6.172;2022-10-18T03:54:04;11.70;99.90
53264;DHT22;39153;52.680;6.172;2022-10-18T03:56:29;11.60;99.90
53264;DHT22;39153;52.680;6.172;2022-10-18T03:58:55;11.60;99.90
53264;DHT22;39153;52.680;6.172;2022-10-18T04:01:21;11.50;99.90
53264;DHT22;39153;52.680;6.172;2022-10-18T04:03:47;11.70;99.90
53264;DHT22;39153;52.680;6.172;2022-10-18T04:06:12;11.80;99.90
53264;DHT22;39153;52.680;6.172;2022-10-18T04:08:38;11.70;99.90
53264;DHT22;39153;52.680;6.172;2022-10-18T04:11:07;12.00;99.90
53264;DHT22;39153;52.680;6.172;2022-10-18T04:13:34;11.70;99.90
53264;DHT22;39153;52.680;6.172;2022-10-18T04:16:00;11.40;99.90
53264;DHT22;39153;52.680;6.172;2022-10-18T04:18:26;11.80;99.90
53264;DHT22;39153;52.680;6.172;2022-10-18T04:20:51;11.70;99.90
53264;DHT22;39153;52.680;6.172;2022-10-18T04:23:17;11.40;99.90
53264;DHT22;39153;52.680;6.172;2022-10-18T04:25:42;12.00;99.90
53264;DHT22;39153;52.680;6.172;2022-10-18T04:28:08;12.00;99.90
53264;DHT22;39153;52.680;6.172;2022-10-18T04:30:34;11.90;99.90
53264;DHT22;39153;52.680;6.172;2022-10-18T04:33:00;11.80;99.90
53264;DHT22;39153;52.680;6.172;2022-10-18T04:35:25;11.90;99.90
53264;DHT22;39153;52.680;6.172;2022-10-18T04:37:53;11.60;99.90
53264;DHT22;39153;52.680;6.172;2022-10-18T04:40:19;11.50;99.90
53264;DHT22;39153;52.680;6.172;2022-10-18T04:42:45;11.60;99.90
53264;DHT22;39153;52.680;6.172;2022-10-18T04:45:11;11.40;99.90
53264;DHT22;39153;52.680;6.172;2022-10-18T04:47:37;11.90;99.90
53264;DHT22;39153;52.680;6.172;2022-10-18T04:50:03;11.30;99.90
53264;DHT22;39153;52.680;6.172;2022-10-18T04:52:29;11.30;99.90
53264;DHT22;39153;52.680;6.172;2022-10-18T04:54:55;11.50;99.90
53264;DHT22;39153;52.680;6.172;2022-10-18T04:57:21;11.80;99.90
53264;DHT22;39153;52.680;6.172;2022-10-18T04:59:46;11.40;99.90
53264;DHT22;39153;52.680;6.172;2022-10-18T05:02:12;11.90;99.90
53264;DHT22;39153;52.680;6.172;2022-10-18T05:04:38;11.90;99.90
53264;DHT22;39153;52.680;6.172;2022-10-18T05:07:03;11.50;99.90
53264;DHT22;39153;52.680;6.172;2022-10-18T05:09:31;11.90;99.90
53264;DHT22;39153;52.680;6.172;2022-10-18T05:11:57;11.40;99.90
53264;DHT22;39153;52.680;6.172;2022-10-18T05:14:23;11.70;99.90
53264;DHT22;39153;52.680;6.172;2022-10-18T05:16:48;11.80;99.90
53264;DHT22;39153;52.680;6.172;2022-10-18T05:19:14;11.40;99.90
53264;DHT22;39153;52.680;6.172;2022-10-18T05:21:40;11.30;99.90
53264;DHT22;39153;52.680;6.172;2022-10-18T05:24:06;11.80;99.90
53264;DHT22;39153;52.680;6.172;2022-10-18T05:26:31;11.40;99.90
53264;DHT22;39153;52.680;6.172;2022-10-18T05:28:57;11.70;99.90
53264;DHT22;39153;52.680;6.172;2022-10-18T05:31:23;11.70;99.90
53264;DHT22;39153;52.680;6.172;2022-10-18T05:33:48;11.60;99.90
53264;DHT22;39153;52.680;6.172;2022-10-18T05:36:14;11.10;99.90
53264;DHT22;39153;52.680;6.172;2022-10-18T05:38:41;11.50;99.90
53264;DHT22;39153;52.680;6.172;2022-10-18T05:41:07;11.70;99.90
53264;DHT22;39153;52.680;6.172;2022-10-18T05:43:33;11.50;99.90
53264;DHT22;39153;52.680;6.172;2022-10-18T05:45:59;11.60;99.90
53264;DHT22;39153;52.680;6.172;2022-10-18T05:48:24;11.10;99.90
53264;DHT22;39153;52.680;6.172;2022-10-18T05:50:51;11.30;99.90
53264;DHT22;39153;52.680;6.172;2022-10-18T05:53:16;11.50;99.90
53264;DHT22;39153;52.680;6.172;2022-10-18T05:55:42;11.40;99.90
53264;DHT22;39153;52.680;6.172;2022-10-18T05:58:08;11.60;99.90
53264;DHT22;39153;52.680;6.172;2022-10-18T06:00:33;11.30;99.90
53264;DHT22;39153;52.680;6.172;2022-10-18T06:03:00;11.40;99.90
53264;DHT22;39153;52.680;6.172;2022-10-18T06:05:26;11.10;99.90
53264;DHT22;39153;52.680;6.172;2022-10-18T06:07:51;11.10;99.90
53264;DHT22;39153;52.680;6.172;2022-10-18T06:10:17;11.10;99.90
53264;DHT22;39153;52.680;6.172;2022-10-18T06:12:43;11.30;99.90
53264;DHT22;39153;52.680;6.172;2022-10-18T06:15:08;11.40;99.90
53264;DHT22;39153;52.680;6.172;2022-10-18T06:17:34;11.00;99.90
53264;DHT22;39153;52.680;6.172;2022-10-18T06:20:00;11.40;99.90
53264;DHT22;39153;52.680;6.172;2022-10-18T06:22:25;10.90;99.90
53264;DHT22;39153;52.680;6.172;2022-10-18T06:24:51;11.10;99.90
53264;DHT22;39153;52.680;6.172;2022-10-18T06:27:16;11.20;99.90
53264;DHT22;39153;52.680;6.172;2022-10-18T06:29:42;10.90;99.90
53264;DHT22;39153;52.680;6.172;2022-10-18T06:32:08;11.40;99.90
53264;DHT22;39153;52.680;6.172;2022-10-18T06:34:34;10.80;99.90
53264;DHT22;39153;52.680;6.172;2022-10-18T06:37:00;10.80;99.90
53264;DHT22;39153;52.680;6.172;2022-10-18T06:39:25;10.90;99.90
53264;DHT22;39153;52.680;6.172;2022-10-18T06:41:51;10.90;99.90
53264;DHT22;39153;52.680;6.172;2022-10-18T06:44:18;11.10;99.90
53264;DHT22;39153;52.680;6.172;2022-10-18T06:46:45;11.30;99.90
53264;DHT22;39153;52.680;6.172;2022-10-18T06:49:12;10.80;99.90
53264;DHT22;39153;52.680;6.172;2022-10-18T06:51:42;11.00;99.90
53264;DHT22;39153;52.680;6.172;2022-10-18T06:54:08;10.80;99.90
53264;DHT22;39153;52.680;6.172;2022-10-18T06:56:33;11.10;99.90
53264;DHT22;39153;52.680;6.172;2022-10-18T06:58:59;10.70;99.90
53264;DHT22;39153;52.680;6.172;2022-10-18T07:01:25;11.00;99.90
53264;DHT22;39153;52.680;6.172;2022-10-18T07:03:54;10.60;99.90
53264;DHT22;39153;52.680;6.172;2022-10-18T07:06:20;10.60;99.90
53264;DHT22;39153;52.680;6.172;2022-10-18T07:08:47;10.90;99.90
53264;DHT22;39153;52.680;6.172;2022-10-18T07:11:16;11.20;99.90
53264;DHT22;39153;52.680;6.172;2022-10-18T07:13:42;10.80;99.90
53264;DHT22;39153;52.680;6.172;2022-10-18T07:16:12;10.50;99.90
53264;DHT22;39153;52.680;6.172;2022-10-18T07:18:43;10.40;99.90
53264;DHT22;39153;52.680;6.172;2022-10-18T07:21:11;10.60;99.90
53264;DHT22;39153;52.680;6.172;2022-10-18T07:23:42;10.80;99.90
53264;DHT22;39153;52.680;6.172;2022-10-18T07:26:27;11.00;99.90
53264;DHT22;39153;52.680;6.172;2022-10-18T07:29:01;10.70;99.90
53264;DHT22;39153;52.680;6.172;2022-10-18T07:31:29;10.90;99.90
53264;DHT22;39153;52.680;6.172;2022-10-18T07:33:54;10.50;99.90
53264;DHT22;39153;52.680;6.172;2022-10-18T07:36:20;10.90;99.90
53264;DHT22;39153;52.680;6.172;2022-10-18T07:38:47;11.10;99.90
53264;DHT22;39153;52.680;6.172;2022-10-18T07:41:13;11.00;99.90
53264;DHT22;39153;52.680;6.172;2022-10-18T07:43:46;11.00;99.90
53264;DHT22;39153;52.680;6.172;2022-10-18T07:46:14;11.20;99.90
53264;DHT22;39153;52.680;6.172;2022-10-18T07:48:40;11.10;99.90
53264;DHT22;39153;52.680;6.172;2022-10-18T07:51:06;11.00;99.90
53264;DHT22;39153;52.680;6.172;2022-10-18T07:53:32;11.20;99.90
53264;DHT22;39153;52.680;6.172;2022-10-18T07:56:04;11.30;99.90
53264;DHT22;39153;52.680;6.172;2022-10-18T07:58:31;11.30;99.90
53264;DHT22;39153;52.680;6.172;2022-10-18T08:01:01;10.80;99.90
53264;DHT22;39153;52.680;6.172;2022-10-18T08:03:27;10.80;99.90
53264;DHT22;39153;52.680;6.172;2022-10-18T08:05:53;11.40;99.90
53264;DHT22;39153;52.680;6.172;2022-10-18T08:08:21;11.20;99.90
53264;DHT22;39153;52.680;6.172;2022-10-18T08:10:47;10.80;99.90
53264;DHT22;39153;52.680;6.172;2022-10-18T08:13:13;11.00;99.90
53264;DHT22;39153;52.680;6.172;2022-10-18T08:15:39;11.30;99.90
53264;DHT22;39153;52.680;6.172;2022-10-18T08:18:04;11.20;99.90
53264;DHT22;39153;52.680;6.172;2022-10-18T08:20:30;11.80;99.90
53264;DHT22;39153;52.680;6.172;2022-10-18T08:22:57;11.20;99.90
53264;DHT22;39153;52.680;6.172;2022-10-18T08:25:23;11.80;99.90
53264;DHT22;39153;52.680;6.172;2022-10-18T08:27:49;11.30;99.90
53264;DHT22;39153;52.680;6.172;2022-10-18T08:30:15;11.50;99.90
53264;DHT22;39153;52.680;6.172;2022-10-18T08:32:40;12.00;99.90
53264;DHT22;39153;52.680;6.172;2022-10-18T08:35:06;12.20;99.90
53264;DHT22;39153;52.680;6.172;2022-10-18T08:37:32;12.40;99.90
53264;DHT22;39153;52.680;6.172;2022-10-18T08:39:58;12.10;99.90
53264;DHT22;39153;52.680;6.172;2022-10-18T08:45:05;12.40;99.90
53264;DHT22;39153;52.680;6.172;2022-10-18T08:47:36;12.00;99.90
53264;DHT22;39153;52.680;6.172;2022-10-18T08:50:28;12.30;99.90
53264;DHT22;39153;52.680;6.172;2022-10-18T08:55:51;12.80;99.90
53264;DHT22;39153;52.680;6.172;2022-10-18T08:58:24;12.90;99.90
53264;DHT22;39153;52.680;6.172;2022-10-18T09:01:06;12.40;99.90
53264;DHT22;39153;52.680;6.172;2022-10-18T09:15:31;13.10;99.90
53264;DHT22;39153;52.680;6.172;2022-10-18T09:23:40;13.40;99.90
53264;DHT22;39153;52.680;6.172;2022-10-18T09:26:21;14.20;99.90
53264;DHT22;39153;52.680;6.172;2022-10-18T09:36:51;14.10;99.90
53264;DHT22;39153;52.680;6.172;2022-10-18T09:39:21;14.50;99.90
53264;DHT22;39153;52.680;6.172;2022-10-18T09:42:17;14.90;99.90
53264;DHT22;39153;52.680;6.172;2022-10-18T09:45:05;14.70;99.90
53264;DHT22;39153;52.680;6.172;2022-10-18T09:47:40;14.80;99.90
53264;DHT22;39153;52.680;6.172;2022-10-18T09:50:49;14.10;99.90
53264;DHT22;39153;52.680;6.172;2022-10-18T09:58:19;14.80;99.90
53264;DHT22;39153;52.680;6.172;2022-10-18T10:00:49;14.40;99.90
53264;DHT22;39153;52.680;6.172;2022-10-18T10:03:15;14.90;99.90
53264;DHT22;39153;52.680;6.172;2022-10-18T10:05:42;14.70;99.90
53264;DHT22;39153;52.680;6.172;2022-10-18T10:08:08;15.10;99.90
53264;DHT22;39153;52.680;6.172;2022-10-18T10:10:34;14.80;99.90
53264;DHT22;39153;52.680;6.172;2022-10-18T10:13:23;15.40;99.90
53264;DHT22;39153;52.680;6.172;2022-10-18T10:16:01;15.40;99.90
53264;DHT22;39153;52.680;6.172;2022-10-18T10:18:30;15.50;99.90
53264;DHT22;39153;52.680;6.172;2022-10-18T10:20:58;15.80;99.90
53264;DHT22;39153;52.680;6.172;2022-10-18T10:25:58;16.20;99.90
53264;DHT22;39153;52.680;6.172;2022-10-18T10:28:28;16.20;99.90
53264;DHT22;39153;52.680;6.172;2022-10-18T10:31:28;16.00;99.90
53264;DHT22;39153;52.680;6.172;2022-10-18T10:33:58;16.00;99.90
53264;DHT22;39153;52.680;6.172;2022-10-18T10:36:24;16.30;99.90
53264;DHT22;39153;52.680;6.172;2022-10-18T10:39:10;16.30;99.90
53264;DHT22;39153;52.680;6.172;2022-10-18T10:41:39;16.40;99.90
53264;DHT22;39153;52.680;6.172;2022-10-18T10:44:14;16.40;99.90
53264;DHT22;39153;52.680;6.172;2022-10-18T10:46:40;16.50;99.90
53264;DHT22;39153;52.680;6.172;2022-10-18T10:49:17;16.50;99.90
53264;DHT22;39153;52.680;6.172;2022-10-18T10:51:44;16.40;99.90
53264;DHT22;39153;52.680;6.172;2022-10-18T10:54:16;16.40;99.90
53264;DHT22;39153;52.680;6.172;2022-10-18T10:57:02;16.60;99.90
53264;DHT22;39153;52.680;6.172;2022-10-18T10:59:40;16.60;99.90
53264;DHT22;39153;52.680;6.172;2022-10-18T11:04:50;16.70;99.90
53264;DHT22;39153;52.680;6.172;2022-10-18T11:07:39;16.80;99.90
53264;DHT22;39153;52.680;6.172;2022-10-18T11:10:15;16.70;99.90
53264;DHT22;39153;52.680;6.172;2022-10-18T11:15:39;17.20;99.90
53264;DHT22;39153;52.680;6.172;2022-10-18T11:23:35;17.40;99.90
53264;DHT22;39153;52.680;6.172;2022-10-18T11:47:10;18.00;99.90
53264;DHT22;39153;52.680;6.172;2022-10-18T11:55:40;18.20;99.90
53264;DHT22;39153;52.680;6.172;2022-10-18T12:04:19;18.50;99.90
53264;DHT22;39153;52.680;6.172;2022-10-18T12:06:49;18.40;99.90
53264;DHT22;39153;52.680;6.172;2022-10-18T12:09:30;18.60;99.90
53264;DHT22;39153;52.680;6.172;2022-10-18T12:14:44;18.60;99.90
53264;DHT22;39153;52.680;6.172;2022-10-18T12:19:55;18.60;99.90
53264;DHT22;39153;52.680;6.172;2022-10-18T12:22:44;18.60;99.90
53264;DHT22;39153;52.680;6.172;2022-10-18T12:25:13;18.60;99.90
53264;DHT22;39153;52.680;6.172;2022-10-18T12:30:46;18.80;99.90
53264;DHT22;39153;52.680;6.172;2022-10-18T12:33:19;19.10;99.90
53264;DHT22;39153;52.680;6.172;2022-10-18T12:38:36;19.00;99.90
53264;DHT22;39153;52.680;6.172;2022-10-18T12:41:05;19.10;99.90
53264;DHT22;39153;52.680;6.172;2022-10-18T12:43:32;19.20;99.90
53264;DHT22;39153;52.680;6.172;2022-10-18T12:46:06;19.30;99.90
53264;DHT22;39153;52.680;6.172;2022-10-18T12:48:41;19.60;99.90
53264;DHT22;39153;52.680;6.172;2022-10-18T12:51:20;19.50;99.90
53264;DHT22;39153;52.680;6.172;2022-10-18T12:54:10;19.60;99.90
53264;DHT22;39153;52.680;6.172;2022-10-18T12:56:39;19.40;99.90
53264;DHT22;39153;52.680;6.172;2022-10-18T13:07:19;19.50;99.90
53264;DHT22;39153;52.680;6.172;2022-10-18T13:21:12;19.40;99.90
53264;DHT22;39153;52.680;6.172;2022-10-18T13:23:58;19.50;99.90
53264;DHT22;39153;52.680;6.172;2022-10-18T13:26:41;19.40;99.90
53264;DHT22;39153;52.680;6.172;2022-10-18T13:34:48;19.70;99.90
53264;DHT22;39153;52.680;6.172;2022-10-18T13:39:40;19.90;99.90
53264;DHT22;39153;52.680;6.172;2022-10-18T13:42:28;20.30;99.90
53264;DHT22;39153;52.680;6.172;2022-10-18T13:47:55;20.10;99.90
53264;DHT22;39153;52.680;6.172;2022-10-18T13:50:32;20.00;99.90
53264;DHT22;39153;52.680;6.172;2022-10-18T13:56:03;19.20;99.90
53264;DHT22;39153;52.680;6.172;2022-10-18T13:59:14;18.90;99.90
53264;DHT22;39153;52.680;6.172;2022-10-18T14:02:13;18.70;99.90
53264;DHT22;39153;52.680;6.172;2022-10-18T14:07:25;18.20;99.90
53264;DHT22;39153;52.680;6.172;2022-10-18T14:09:52;18.20;99.90
53264;DHT22;39153;52.680;6.172;2022-10-18T14:12:29;18.00;99.90
53264;DHT22;39153;52.680;6.172;2022-10-18T14:15:15;17.80;99.90
53264;DHT22;39153;52.680;6.172;2022-10-18T14:17:55;17.60;99.90
53264;DHT22;39153;52.680;6.172;2022-10-18T14:20:29;17.40;99.90
53264;DHT22;39153;52.680;6.172;2022-10-18T14:25:32;17.30;99.90
53264;DHT22;39153;52.680;6.172;2022-10-18T14:33:44;17.30;99.90
53264;DHT22;39153;52.680;6.172;2022-10-18T14:39:04;17.20;99.90
53264;DHT22;39153;52.680;6.172;2022-10-18T14:46:50;17.20;99.90
53264;DHT22;39153;52.680;6.172;2022-10-18T14:49:18;17.10;99.90
53264;DHT22;39153;52.680;6.172;2022-10-18T14:51:49;17.10;99.90
53264;DHT22;39153;52.680;6.172;2022-10-18T14:54:18;17.10;99.90
53264;DHT22;39153;52.680;6.172;2022-10-18T14:56:44;17.10;99.90
53264;DHT22;39153;52.680;6.172;2022-10-18T14:59:22;17.00;99.90
53264;DHT22;39153;52.680;6.172;2022-10-18T15:02:13;16.90;99.90
53264;DHT22;39153;52.680;6.172;2022-10-18T15:04:39;16.80;99.90
53264;DHT22;39153;52.680;6.172;2022-10-18T15:07:15;16.80;99.90
53264;DHT22;39153;52.680;6.172;2022-10-18T15:09:41;16.80;99.90
53264;DHT22;39153;52.680;6.172;2022-10-18T15:12:11;16.80;99.90
53264;DHT22;39153;52.680;6.172;2022-10-18T15:14:38;16.70;99.90
53264;DHT22;39153;52.680;6.172;2022-10-18T15:17:27;16.70;99.90
53264;DHT22;39153;52.680;6.172;2022-10-18T15:19:59;16.70;99.90
53264;DHT22;39153;52.680;6.172;2022-10-18T15:22:27;16.60;99.90
53264;DHT22;39153;52.680;6.172;2022-10-18T15:25:17;16.50;99.90
53264;DHT22;39153;52.680;6.172;2022-10-18T15:27:45;16.40;99.90
53264;DHT22;39153;52.680;6.172;2022-10-18T15:30:19;16.40;99.90
53264;DHT22;39153;52.680;6.172;2022-10-18T15:33:00;16.30;99.90
53264;DHT22;39153;52.680;6.172;2022-10-18T15:35:31;16.30;99.90
53264;DHT22;39153;52.680;6.172;2022-10-18T15:38:00;16.20;99.90
53264;DHT22;39153;52.680;6.172;2022-10-18T15:40:33;16.20;99.90
53264;DHT22;39153;52.680;6.172;2022-10-18T15:43:04;16.10;99.90
53264;DHT22;39153;52.680;6.172;2022-10-18T15:45:38;16.00;99.90
53264;DHT22;39153;52.680;6.172;2022-10-18T15:50:42;15.90;99.90
53264;DHT22;39153;52.680;6.172;2022-10-18T15:55:49;15.70;99.90
53264;DHT22;39153;52.680;6.172;2022-10-18T16:01:13;15.50;99.90
53264;DHT22;39153;52.680;6.172;2022-10-18T16:03:39;15.50;99.90
53264;DHT22;39153;52.680;6.172;2022-10-18T16:06:08;15.50;99.90
53264;DHT22;39153;52.680;6.172;2022-10-18T16:08:37;15.40;99.90
53264;DHT22;39153;52.680;6.172;2022-10-18T16:11:07;15.30;99.90
53264;DHT22;39153;52.680;6.172;2022-10-18T16:13:33;15.20;99.90
53264;DHT22;39153;52.680;6.172;2022-10-18T16:15:59;15.20;99.90
53264;DHT22;39153;52.680;6.172;2022-10-18T16:18:25;15.10;99.90
53264;DHT22;39153;52.680;6.172;2022-10-18T16:20:51;15.10;99.90
53264;DHT22;39153;52.680;6.172;2022-10-18T16:23:25;15.10;99.90
53264;DHT22;39153;52.680;6.172;2022-10-18T16:25:52;15.00;99.90
53264;DHT22;39153;52.680;6.172;2022-10-18T16:28:22;15.00;99.90
53264;DHT22;39153;52.680;6.172;2022-10-18T16:31:08;14.90;99.90
53264;DHT22;39153;52.680;6.172;2022-10-18T16:33:34;14.70;99.90
53264;DHT22;39153;52.680;6.172;2022-10-18T16:36:01;14.70;99.90
53264;DHT22;39153;52.680;6.172;2022-10-18T16:40:54;14.50;99.90
53264;DHT22;39153;52.680;6.172;2022-10-18T16:43:21;14.60;99.90
53264;DHT22;39153;52.680;6.172;2022-10-18T16:45:47;14.50;99.90
53264;DHT22;39153;52.680;6.172;2022-10-18T16:48:15;14.50;99.90
53264;DHT22;39153;52.680;6.172;2022-10-18T16:50:41;14.40;99.90
53264;DHT22;39153;52.680;6.172;2022-10-18T16:53:07;14.40;99.90
53264;DHT22;39153;52.680;6.172;2022-10-18T16:55:33;14.30;99.90
53264;DHT22;39153;52.680;6.172;2022-10-18T16:57:58;14.20;99.90
53264;DHT22;39153;52.680;6.172;2022-10-18T17:00:24;14.20;99.90
53264;DHT22;39153;52.680;6.172;2022-10-18T17:02:50;14.20;99.90
53264;DHT22;39153;52.680;6.172;2022-10-18T17:05:16;14.20;99.90
53264;DHT22;39153;52.680;6.172;2022-10-18T17:07:43;14.10;99.90
53264;DHT22;39153;52.680;6.172;2022-10-18T17:10:17;14.10;99.90
53264;DHT22;39153;52.680;6.172;2022-10-18T17:12:43;14.10;99.90
53264;DHT22;39153;52.680;6.172;2022-10-18T17:15:10;14.00;99.90
53264;DHT22;39153;52.680;6.172;2022-10-18T17:17:37;14.10;99.90
53264;DHT22;39153;52.680;6.172;2022-10-18T17:20:05;13.90;99.90
53264;DHT22;39153;52.680;6.172;2022-10-18T17:22:31;13.80;99.90
53264;DHT22;39153;52.680;6.172;2022-10-18T17:24:57;13.90;99.90
53264;DHT22;39153;52.680;6.172;2022-10-18T17:27:23;13.90;99.90
53264;DHT22;39153;52.680;6.172;2022-10-18T17:29:48;13.70;99.90
53264;DHT22;39153;52.680;6.172;2022-10-18T17:32:14;13.70;99.90
53264;DHT22;39153;52.680;6.172;2022-10-18T17:34:40;13.80;99.90
53264;DHT22;39153;52.680;6.172;2022-10-18T17:37:06;13.70;99.90
53264;DHT22;39153;52.680;6.172;2022-10-18T17:39:31;13.60;99.90
53264;DHT22;39153;52.680;6.172;2022-10-18T17:41:58;13.60;99.90
53264;DHT22;39153;52.680;6.172;2022-10-18T17:44:24;13.50;99.90
53264;DHT22;39153;52.680;6.172;2022-10-18T17:46:50;13.40;99.90
53264;DHT22;39153;52.680;6.172;2022-10-18T17:49:16;13.60;99.90
53264;DHT22;39153;52.680;6.172;2022-10-18T17:51:42;13.50;99.90
53264;DHT22;39153;52.680;6.172;2022-10-18T17:54:10;13.40;99.90
53264;DHT22;39153;52.680;6.172;2022-10-18T17:56:38;13.50;99.90
53264;DHT22;39153;52.680;6.172;2022-10-18T17:59:04;13.60;99.90
53264;DHT22;39153;52.680;6.172;2022-10-18T18:01:29;13.40;99.90
53264;DHT22;39153;52.680;6.172;2022-10-18T18:03:56;13.50;99.90
53264;DHT22;39153;52.680;6.172;2022-10-18T18:06:24;13.50;99.90
53264;DHT22;39153;52.680;6.172;2022-10-18T18:08:56;13.50;99.90
53264;DHT22;39153;52.680;6.172;2022-10-18T18:11:23;13.40;99.90
53264;DHT22;39153;52.680;6.172;2022-10-18T18:13:49;13.40;99.90
53264;DHT22;39153;52.680;6.172;2022-10-18T18:18:42;13.30;99.90
53264;DHT22;39153;52.680;6.172;2022-10-18T18:21:09;13.30;99.90
53264;DHT22;39153;52.680;6.172;2022-10-18T18:23:35;13.20;99.90
53264;DHT22;39153;52.680;6.172;2022-10-18T18:26:00;13.20;99.90
53264;DHT22;39153;52.680;6.172;2022-10-18T18:28:26;13.20;99.90
53264;DHT22;39153;52.680;6.172;2022-10-18T18:30:52;13.10;99.90
53264;DHT22;39153;52.680;6.172;2022-10-18T18:33:17;13.20;99.90
53264;DHT22;39153;52.680;6.172;2022-10-18T18:35:43;13.10;99.90
53264;DHT22;39153;52.680;6.172;2022-10-18T18:38:17;13.10;99.90
53264;DHT22;39153;52.680;6.172;2022-10-18T18:40:43;13.10;99.90
53264;DHT22;39153;52.680;6.172;2022-10-18T18:43:09;13.10;99.90
53264;DHT22;39153;52.680;6.172;2022-10-18T18:45:34;13.10;99.90
53264;DHT22;39153;52.680;6.172;2022-10-18T18:48:00;13.10;99.90
53264;DHT22;39153;52.680;6.172;2022-10-18T18:50:26;13.00;99.90
53264;DHT22;39153;52.680;6.172;2022-10-18T18:52:52;13.00;99.90